createdAt,value
2022-09-28T00:00:42.386Z,0.00
2022-09-28T00:01:42.475Z,0.00
2022-09-28T00:02:42.415Z,0.00
2022-09-28T00:03:42.375Z,0.00
2022-09-28T00:04:42.356Z,0.00
2022-09-28T00:05:42.349Z,0.00
2022-09-28T00:06:42.360Z,0.00
2022-09-28T00:07:42.336Z,0.00
2022-09-28T00:08:42.329Z,0.00
2022-09-28T00:09:42.337Z,0.00
2022-09-28T00:10:42.309Z,0.00
2022-09-28T00:11:42.300Z,0.00
2022-09-28T00:12:42.304Z,0.00
2022-09-28T00:13:42.288Z,0.00
2022-09-28T00:14:42.304Z,0.00
2022-09-28T00:15:42.262Z,0.00
2022-09-28T00:16:42.294Z,0.00
2022-09-28T00:17:42.243Z,0.00
2022-09-28T00:18:42.233Z,0.00
2022-09-28T00:19:42.236Z,0.00
2022-09-28T00:20:42.244Z,0.00
2022-09-28T00:21:42.251Z,0.00
2022-09-28T00:22:42.205Z,0.00
2022-09-28T00:23:42.193Z,0.00
2022-09-28T00:24:42.180Z,0.00
2022-09-28T00:25:42.180Z,0.00
2022-09-28T00:26:42.182Z,0.00
2022-09-28T00:27:42.177Z,0.00
2022-09-28T00:28:42.150Z,0.00
2022-09-28T00:29:42.144Z,0.00
2022-09-28T00:30:42.128Z,0.00
2022-09-28T00:31:42.190Z,0.00
2022-09-28T00:32:42.104Z,0.00
2022-09-28T00:33:42.107Z,0.00
2022-09-28T00:34:42.100Z,0.00
2022-09-28T00:35:42.085Z,0.00
2022-09-28T00:36:42.079Z,0.00
2022-09-28T00:37:42.083Z,0.00
2022-09-28T00:38:42.050Z,0.00
2022-09-28T00:39:42.061Z,0.00
2022-09-28T00:40:42.074Z,0.00
2022-09-28T00:41:42.054Z,0.00
2022-09-28T00:42:42.044Z,0.00
2022-09-28T00:43:42.012Z,0.00
2022-09-28T00:44:42.006Z,0.00
2022-09-28T00:45:42.049Z,0.00
2022-09-28T00:46:42.021Z,0.00
2022-09-28T00:47:42.783Z,0.00
2022-09-28T00:48:41.975Z,0.00
2022-09-28T00:49:41.984Z,0.00
2022-09-28T00:50:41.951Z,0.00
2022-09-28T00:51:41.949Z,0.00
2022-09-28T00:52:41.932Z,0.00
2022-09-28T00:53:41.918Z,0.00
2022-09-28T00:54:41.919Z,0.00
2022-09-28T00:55:41.932Z,0.00
2022-09-28T00:56:41.892Z,0.00
2022-09-28T00:57:41.887Z,0.00
2022-09-28T00:58:41.879Z,0.00
2022-09-28T00:59:41.867Z,0.00
2022-09-28T01:00:41.955Z,0.00
2022-09-28T01:01:41.897Z,0.00
2022-09-28T01:02:41.902Z,0.00
2022-09-28T01:03:41.854Z,0.00
2022-09-28T01:04:41.820Z,0.00
2022-09-28T01:05:41.833Z,0.00
2022-09-28T01:06:41.803Z,0.00
2022-09-28T01:07:41.807Z,0.00
2022-09-28T01:08:41.801Z,0.00
2022-09-28T01:09:41.816Z,0.00
2022-09-28T01:10:41.767Z,0.00
2022-09-28T01:11:41.761Z,0.00
2022-09-28T01:12:41.829Z,0.00
2022-09-28T01:13:41.745Z,0.00
2022-09-28T01:14:41.727Z,0.00
2022-09-28T01:15:41.758Z,0.00
2022-09-28T01:16:41.758Z,0.00
2022-09-28T01:17:41.715Z,0.00
2022-09-28T01:18:41.709Z,0.00
2022-09-28T01:19:41.704Z,0.00
2022-09-28T01:20:42.273Z,0.00
2022-09-28T01:21:41.728Z,0.00
2022-09-28T01:22:41.664Z,0.00
2022-09-28T01:23:41.660Z,0.00
2022-09-28T01:24:41.658Z,0.00
2022-09-28T01:25:41.636Z,0.00
2022-09-28T01:26:41.661Z,0.00
2022-09-28T01:27:41.612Z,0.00
2022-09-28T01:28:41.610Z,0.00
2022-09-28T01:29:41.618Z,0.00
2022-09-28T01:30:41.598Z,0.00
2022-09-28T01:31:41.638Z,0.00
2022-09-28T01:32:41.596Z,0.00
2022-09-28T01:33:41.576Z,0.00
2022-09-28T01:34:41.562Z,0.00
2022-09-28T01:35:41.555Z,0.00
2022-09-28T01:36:41.554Z,0.00
2022-09-28T01:37:41.549Z,0.00
2022-09-28T01:38:41.545Z,0.00
2022-09-28T01:39:41.527Z,0.00
2022-09-28T01:40:49.054Z,0.00
2022-09-28T01:41:41.496Z,0.00
2022-09-28T01:42:41.504Z,0.00
2022-09-28T01:43:41.484Z,0.00
2022-09-28T01:44:41.469Z,0.00
2022-09-28T01:45:41.495Z,0.00
2022-09-28T01:46:41.457Z,0.00
2022-09-28T01:47:41.484Z,0.00
2022-09-28T01:48:41.463Z,0.00
2022-09-28T01:49:41.441Z,0.00
2022-09-28T01:50:41.416Z,0.00
2022-09-28T01:51:41.418Z,0.00
2022-09-28T01:52:41.586Z,0.00
2022-09-28T01:53:41.458Z,0.00
2022-09-28T01:54:41.391Z,0.00
2022-09-28T01:55:41.379Z,0.00
2022-09-28T01:56:41.407Z,0.00
2022-09-28T01:57:41.391Z,0.00
2022-09-28T01:58:41.350Z,0.00
2022-09-28T01:59:41.387Z,0.00
2022-09-28T02:00:41.413Z,0.00
2022-09-28T02:01:41.405Z,0.00
2022-09-28T02:02:41.317Z,0.00
2022-09-28T02:03:41.311Z,0.00
2022-09-28T02:04:41.324Z,0.00
2022-09-28T02:05:41.295Z,0.00
2022-09-28T02:06:41.308Z,0.00
2022-09-28T02:07:41.280Z,0.00
2022-09-28T02:08:41.265Z,0.00
2022-09-28T02:09:41.255Z,0.00
2022-09-28T02:10:41.364Z,0.00
2022-09-28T02:11:41.248Z,0.00
2022-09-28T02:12:41.240Z,0.00
2022-09-28T02:13:41.224Z,0.00
2022-09-28T02:14:41.213Z,0.00
2022-09-28T02:15:41.242Z,0.00
2022-09-28T02:16:41.277Z,0.00
2022-09-28T02:17:41.238Z,0.00
2022-09-28T02:18:41.177Z,0.00
2022-09-28T02:19:41.172Z,0.00
2022-09-28T02:20:41.158Z,0.00
2022-09-28T02:21:41.151Z,0.00
2022-09-28T02:22:41.130Z,0.00
2022-09-28T02:23:41.151Z,0.00
2022-09-28T02:24:41.115Z,0.00
2022-09-28T02:25:41.154Z,0.00
2022-09-28T02:26:41.100Z,0.00
2022-09-28T02:27:41.103Z,0.00
2022-09-28T02:28:41.087Z,0.00
2022-09-28T02:29:41.090Z,0.00
2022-09-28T02:30:41.075Z,0.00
2022-09-28T02:31:41.116Z,0.00
2022-09-28T02:32:41.052Z,0.00
2022-09-28T02:33:41.045Z,0.00
2022-09-28T02:34:41.031Z,0.00
2022-09-28T02:35:41.053Z,0.00
2022-09-28T02:36:41.039Z,0.00
2022-09-28T02:37:41.000Z,0.00
2022-09-28T02:38:40.986Z,0.00
2022-09-28T02:39:40.991Z,0.00
2022-09-28T02:40:41.029Z,0.00
2022-09-28T02:41:40.967Z,0.00
2022-09-28T02:42:40.978Z,0.00
2022-09-28T02:43:40.956Z,0.00
2022-09-28T02:44:40.948Z,0.00
2022-09-28T02:45:40.968Z,0.00
2022-09-28T02:46:40.935Z,0.00
2022-09-28T02:47:40.940Z,0.00
2022-09-28T02:48:43.962Z,0.00
2022-09-28T02:49:40.901Z,0.00
2022-09-28T02:50:40.899Z,0.00
2022-09-28T02:51:40.894Z,0.00
2022-09-28T02:52:40.898Z,0.00
2022-09-28T02:53:40.884Z,0.00
2022-09-28T02:54:40.863Z,0.00
2022-09-28T02:55:40.850Z,0.00
2022-09-28T02:56:40.835Z,0.00
2022-09-28T02:57:40.837Z,0.00
2022-09-28T02:58:40.821Z,0.00
2022-09-28T02:59:40.837Z,0.00
2022-09-28T03:00:40.854Z,0.00
2022-09-28T03:01:40.860Z,0.00
2022-09-28T03:02:40.777Z,0.00
2022-09-28T03:03:40.790Z,0.00
2022-09-28T03:04:40.779Z,0.00
2022-09-28T03:05:40.747Z,0.00
2022-09-28T03:06:40.741Z,0.00
2022-09-28T03:07:40.741Z,0.00
2022-09-28T03:08:40.748Z,0.00
2022-09-28T03:09:40.721Z,0.00
2022-09-28T03:10:40.705Z,0.00
2022-09-28T03:11:40.710Z,0.00
2022-09-28T03:12:40.684Z,0.00
2022-09-28T03:13:40.691Z,0.00
2022-09-28T03:14:40.715Z,0.00
2022-09-28T03:15:41.949Z,0.00
2022-09-28T03:16:40.741Z,0.00
2022-09-28T03:17:40.640Z,0.00
2022-09-28T03:18:40.641Z,0.00
2022-09-28T03:19:40.627Z,0.00
2022-09-28T03:20:40.637Z,0.00
2022-09-28T03:21:40.604Z,0.00
2022-09-28T03:22:40.602Z,0.00
2022-09-28T03:23:40.597Z,0.00
2022-09-28T03:24:40.586Z,0.00
2022-09-28T03:25:40.583Z,0.00
2022-09-28T03:26:40.594Z,0.00
2022-09-28T03:27:40.582Z,0.00
2022-09-28T03:28:40.566Z,0.00
2022-09-28T03:29:40.556Z,0.00
2022-09-28T03:30:40.539Z,0.00
2022-09-28T03:31:40.542Z,0.00
2022-09-28T03:32:40.537Z,0.00
2022-09-28T03:33:40.511Z,0.00
2022-09-28T03:34:40.495Z,0.00
2022-09-28T03:35:40.490Z,0.00
2022-09-28T03:36:40.472Z,0.00
2022-09-28T03:37:40.532Z,0.00
2022-09-28T03:38:40.476Z,0.00
2022-09-28T03:39:40.460Z,0.00
2022-09-28T03:40:40.507Z,0.00
2022-09-28T03:41:40.451Z,0.00
2022-09-28T03:42:40.437Z,0.00
2022-09-28T03:43:40.450Z,0.00
2022-09-28T03:44:40.413Z,0.00
2022-09-28T03:45:40.476Z,0.00
2022-09-28T03:46:40.403Z,0.00
2022-09-28T03:47:40.388Z,0.00
2022-09-28T03:48:40.401Z,0.00
2022-09-28T03:49:40.401Z,0.00
2022-09-28T03:50:40.369Z,0.00
2022-09-28T03:51:40.399Z,0.00
2022-09-28T03:52:40.347Z,0.00
2022-09-28T03:53:40.357Z,0.00
2022-09-28T03:54:40.349Z,0.00
2022-09-28T03:55:40.333Z,0.00
2022-09-28T03:56:40.313Z,0.00
2022-09-28T03:57:40.335Z,0.00
2022-09-28T03:58:40.304Z,0.00
2022-09-28T03:59:40.319Z,0.00
2022-09-28T04:00:40.354Z,0.00
2022-09-28T04:01:40.421Z,0.00
2022-09-28T04:02:40.271Z,0.00
2022-09-28T04:03:40.254Z,0.00
2022-09-28T04:04:40.254Z,0.00
2022-09-28T04:05:40.249Z,0.00
2022-09-28T04:06:40.239Z,0.00
2022-09-28T04:07:40.248Z,0.00
2022-09-28T04:08:40.220Z,0.00
2022-09-28T04:09:40.206Z,0.00
2022-09-28T04:10:40.201Z,0.00
2022-09-28T04:11:59.721Z,0.00
2022-09-28T04:12:41.225Z,0.00
2022-09-28T04:13:40.213Z,0.00
2022-09-28T04:14:40.181Z,0.00
2022-09-28T04:15:40.176Z,0.00
2022-09-28T04:16:40.203Z,0.00
2022-09-28T04:17:40.417Z,0.00
2022-09-28T04:18:40.164Z,0.00
2022-09-28T04:19:40.143Z,0.00
2022-09-28T04:20:40.115Z,0.00
2022-09-28T04:21:40.151Z,0.00
2022-09-28T04:22:40.112Z,0.00
2022-09-28T04:23:40.086Z,0.00
2022-09-28T04:24:40.101Z,0.00
2022-09-28T04:25:40.068Z,0.00
2022-09-28T04:26:40.073Z,0.00
2022-09-28T04:27:40.071Z,0.00
2022-09-28T04:28:40.066Z,0.00
2022-09-28T04:29:40.048Z,0.00
2022-09-28T04:30:40.056Z,0.00
2022-09-28T04:31:40.072Z,0.00
2022-09-28T04:32:40.044Z,0.00
2022-09-28T04:33:40.005Z,0.00
2022-09-28T04:34:43.870Z,0.00
2022-09-28T04:35:40.003Z,0.00
2022-09-28T04:36:39.997Z,0.00
2022-09-28T04:37:39.971Z,0.00
2022-09-28T04:38:52.868Z,0.00
2022-09-28T04:39:43.954Z,0.00
2022-09-28T04:40:40.988Z,0.00
2022-09-28T04:41:39.957Z,0.00
2022-09-28T04:42:39.962Z,0.00
2022-09-28T04:43:39.923Z,0.00
2022-09-28T04:44:39.953Z,0.00
2022-09-28T04:45:39.982Z,0.00
2022-09-28T04:46:39.934Z,0.00
2022-09-28T04:47:39.909Z,0.00
2022-09-28T04:48:39.883Z,1.00
2022-09-28T04:49:39.931Z,1.00
2022-09-28T04:50:39.861Z,1.00
2022-09-28T04:51:39.859Z,0.00
2022-09-28T04:52:39.837Z,0.00
2022-09-28T04:53:39.830Z,1.00
2022-09-28T04:54:39.848Z,1.00
2022-09-28T04:55:39.816Z,1.00
2022-09-28T04:56:39.820Z,1.00
2022-09-28T04:57:39.802Z,1.00
2022-09-28T04:58:39.815Z,2.00
2022-09-28T04:59:39.948Z,2.00
2022-09-28T05:00:39.776Z,2.00
2022-09-28T05:01:39.817Z,2.00
2022-09-28T05:02:39.810Z,3.00
2022-09-28T05:03:39.773Z,3.00
2022-09-28T05:04:39.847Z,4.00
2022-09-28T05:05:39.825Z,4.00
2022-09-28T05:06:39.715Z,6.00
2022-09-28T05:07:39.776Z,5.00
2022-09-28T05:08:39.703Z,5.00
2022-09-28T05:09:39.703Z,7.00
2022-09-28T05:10:39.699Z,9.00
2022-09-28T05:11:39.748Z,7.00
2022-09-28T05:12:39.682Z,9.00
2022-09-28T05:13:39.665Z,12.00
2022-09-28T05:14:39.655Z,12.00
2022-09-28T05:15:39.654Z,13.00
2022-09-28T05:16:39.709Z,14.00
2022-09-28T05:17:39.659Z,16.00
2022-09-28T05:18:39.618Z,16.00
2022-09-28T05:19:39.618Z,18.00
2022-09-28T05:20:39.600Z,16.00
2022-09-28T05:21:39.820Z,15.00
2022-09-28T05:22:39.634Z,18.00
2022-09-28T05:23:39.579Z,21.00
2022-09-28T05:24:39.577Z,27.00
2022-09-28T05:25:39.572Z,31.00
2022-09-28T05:26:39.568Z,35.00
2022-09-28T05:27:39.540Z,39.00
2022-09-28T05:28:39.559Z,44.00
2022-09-28T05:29:39.543Z,50.00
2022-09-28T05:30:39.533Z,54.00
2022-09-28T05:31:39.553Z,56.00
2022-09-28T05:32:39.503Z,54.00
2022-09-28T05:33:39.597Z,52.00
2022-09-28T05:34:39.518Z,49.00
2022-09-28T05:35:39.519Z,51.00
2022-09-28T05:36:39.462Z,53.00
2022-09-28T05:37:39.463Z,61.00
2022-09-28T05:38:39.459Z,64.00
2022-09-28T05:39:39.447Z,67.00
2022-09-28T05:40:43.329Z,73.00
2022-09-28T05:41:39.459Z,75.00
2022-09-28T05:42:39.582Z,82.00
2022-09-28T05:43:39.413Z,90.00
2022-09-28T05:44:39.415Z,99.00
2022-09-28T05:45:39.506Z,111.00
2022-09-28T05:46:39.411Z,126.00
2022-09-28T05:47:39.380Z,138.00
2022-09-28T05:48:39.390Z,152.00
2022-09-28T05:49:39.353Z,160.00
2022-09-28T05:50:39.452Z,162.00
2022-09-28T05:51:39.391Z,161.00
2022-09-28T05:52:39.337Z,145.00
2022-09-28T05:53:39.329Z,125.00
2022-09-28T05:54:39.327Z,108.00
2022-09-28T05:55:39.385Z,103.00
2022-09-28T05:56:40.553Z,107.00
2022-09-28T05:57:39.310Z,113.00
2022-09-28T05:58:39.314Z,109.00
2022-09-28T05:59:39.750Z,110.00
2022-09-28T06:00:39.271Z,113.00
2022-09-28T06:01:39.296Z,118.00
2022-09-28T06:02:39.321Z,124.00
2022-09-28T06:03:39.260Z,134.00
2022-09-28T06:04:39.252Z,149.00
2022-09-28T06:05:39.243Z,162.00
2022-09-28T06:06:39.216Z,171.00
2022-09-28T06:07:39.212Z,177.00
2022-09-28T06:08:39.229Z,181.00
2022-09-28T06:09:39.196Z,179.00
2022-09-28T06:10:39.185Z,182.00
2022-09-28T06:11:39.196Z,186.00
2022-09-28T06:12:39.179Z,188.00
2022-09-28T06:13:39.191Z,186.00
2022-09-28T06:14:39.378Z,187.00
2022-09-28T06:15:39.201Z,188.00
2022-09-28T06:16:43.102Z,181.00
2022-09-28T06:17:39.826Z,178.00
2022-09-28T06:18:39.117Z,173.00
2022-09-28T06:19:39.140Z,167.00
2022-09-28T06:20:39.110Z,189.00
2022-09-28T06:21:39.088Z,227.00
2022-09-28T06:22:39.094Z,278.00
2022-09-28T06:23:40.522Z,333.00
2022-09-28T06:24:39.076Z,392.00
2022-09-28T06:25:39.082Z,453.00
2022-09-28T06:26:39.052Z,516.00
2022-09-28T06:27:39.042Z,564.00
2022-09-28T06:28:39.034Z,599.00
2022-09-28T06:29:39.022Z,638.00
2022-09-28T06:30:39.165Z,672.00
2022-09-28T06:31:39.033Z,705.00
2022-09-28T06:32:38.994Z,731.00
2022-09-28T06:33:39.007Z,748.00
2022-09-28T06:34:38.995Z,757.00
2022-09-28T06:35:39.000Z,767.00
2022-09-28T06:36:38.974Z,783.00
2022-09-28T06:37:38.966Z,798.00
2022-09-28T06:38:38.963Z,808.00
2022-09-28T06:39:38.938Z,802.00
2022-09-28T06:40:39.025Z,796.00
2022-09-28T06:41:39.011Z,797.00
2022-09-28T06:42:38.914Z,823.00
2022-09-28T06:43:38.988Z,875.00
2022-09-28T06:44:38.903Z,941.00
2022-09-28T06:45:38.896Z,995.00
2022-09-28T06:46:38.960Z,1032.00
2022-09-28T06:47:38.898Z,1039.00
2022-09-28T06:48:38.870Z,1051.00
2022-09-28T06:49:38.871Z,1091.00
2022-09-28T06:50:38.855Z,1198.00
2022-09-28T06:51:38.859Z,1270.00
2022-09-28T06:52:38.866Z,1227.00
2022-09-28T06:53:38.820Z,1350.00
2022-09-28T06:54:38.832Z,1722.00
2022-09-28T06:55:38.828Z,2149.00
2022-09-28T06:56:38.806Z,2490.00
2022-09-28T06:57:38.788Z,2776.00
2022-09-28T06:58:38.799Z,2985.00
2022-09-28T06:59:38.766Z,3159.00
2022-09-28T07:00:38.764Z,3441.00
2022-09-28T07:01:38.901Z,3683.00
2022-09-28T07:02:38.837Z,3743.00
2022-09-28T07:03:38.768Z,4060.00
2022-09-28T07:04:38.723Z,4839.00
2022-09-28T07:05:38.764Z,4648.00
2022-09-28T07:06:38.732Z,3906.00
2022-09-28T07:07:38.772Z,5216.00
2022-09-28T07:08:38.729Z,2035.00
2022-09-28T07:09:43.713Z,1615.00
2022-09-28T07:10:39.690Z,1551.00
2022-09-28T07:11:38.678Z,1593.00
2022-09-28T07:12:38.673Z,1641.00
2022-09-28T07:15:31.713Z,1956.00
2022-09-28T07:16:05.653Z,2277.00
2022-09-28T07:17:13.630Z,2460.00
2022-09-28T07:18:06.698Z,2434.00
2022-09-28T07:19:05.623Z,1887.00
2022-09-28T07:20:16.236Z,1372.00
2022-09-28T07:21:06.806Z,1076.00
2022-09-28T07:22:05.817Z,883.00
2022-09-28T07:23:17.339Z,805.00
2022-09-28T07:24:06.627Z,770.00
2022-09-28T07:25:05.574Z,727.00
2022-09-28T07:26:08.128Z,722.00
2022-09-28T07:27:05.569Z,738.00
2022-09-28T07:28:05.554Z,812.00
2022-09-28T07:29:05.555Z,855.00
2022-09-28T07:30:05.543Z,899.00
2022-09-28T07:31:05.579Z,935.00
2022-09-28T07:32:05.553Z,941.00
2022-09-28T07:33:05.572Z,940.00
2022-09-28T07:34:05.517Z,942.00
2022-09-28T07:35:05.542Z,985.00
2022-09-28T07:36:05.536Z,1049.00
2022-09-28T07:39:59.600Z,1491.00
2022-09-28T07:40:59.749Z,1704.00
2022-09-28T07:42:02.630Z,2052.00
2022-09-28T07:42:59.513Z,2966.00
2022-09-28T07:43:59.505Z,3996.00
2022-09-28T07:44:59.498Z,8183.00
2022-09-28T07:45:59.582Z,21313.00
2022-09-28T07:46:59.482Z,4622.00
2022-09-28T07:47:59.499Z,5347.00
2022-09-28T07:48:59.460Z,3030.00
2022-09-28T07:49:59.450Z,2511.00
2022-09-28T07:50:59.448Z,2471.00
2022-09-28T07:51:59.559Z,2470.00
2022-09-28T07:52:59.425Z,2101.00
2022-09-28T07:53:59.436Z,2103.00
2022-09-28T07:55:03.362Z,2350.00
2022-09-28T07:56:00.410Z,2926.00
2022-09-28T07:56:59.439Z,4212.00
2022-09-28T07:57:59.442Z,12532.00
2022-09-28T07:58:59.403Z,5377.00
2022-09-28T07:59:59.398Z,5177.00
2022-09-28T08:00:59.418Z,10139.00
2022-09-28T08:01:59.415Z,6060.00
2022-09-28T08:02:59.344Z,5835.00
2022-09-28T08:03:59.367Z,5750.00
2022-09-28T08:04:59.326Z,6381.00
2022-09-28T08:05:59.326Z,7884.00
2022-09-28T08:06:59.352Z,13391.00
2022-09-28T08:07:59.307Z,61469.00
2022-09-28T08:08:59.312Z,61337.00
2022-09-28T08:09:59.315Z,61488.00
2022-09-28T08:10:59.301Z,61516.00
2022-09-28T08:11:59.273Z,61449.00
2022-09-28T08:13:02.090Z,61399.00
2022-09-28T08:13:59.269Z,61456.00
2022-09-28T08:14:59.241Z,61356.00
2022-09-28T08:15:59.250Z,61196.00
2022-09-28T08:16:59.217Z,12800.00
2022-09-28T08:18:02.616Z,16068.00
2022-09-28T08:18:59.248Z,9445.00
2022-09-28T08:19:59.195Z,30778.00
2022-09-28T08:20:59.213Z,5911.00
2022-09-28T08:21:59.251Z,3189.00
2022-09-28T08:22:59.177Z,2406.00
2022-09-28T08:23:59.173Z,2521.00
2022-09-28T08:24:59.165Z,3034.00
2022-09-28T08:25:59.174Z,3721.00
2022-09-28T08:26:59.207Z,4139.00
2022-09-28T08:27:59.138Z,12834.00
2022-09-28T08:28:59.156Z,30238.00
2022-09-28T08:29:59.120Z,61492.00
2022-09-28T08:30:59.160Z,61536.00
2022-09-28T08:32:01.558Z,61459.00
2022-09-28T08:32:59.102Z,24685.00
2022-09-28T08:33:59.124Z,61350.00
2022-09-28T08:34:59.084Z,61423.00
2022-09-28T08:35:59.090Z,61419.00
2022-09-28T08:36:59.062Z,61375.00
2022-09-28T08:37:59.063Z,62193.00
2022-09-28T08:38:59.041Z,61503.00
2022-09-28T08:39:59.063Z,8675.00
2022-09-28T08:40:59.123Z,3920.00
2022-09-28T08:41:59.026Z,2922.00
2022-09-28T08:42:59.026Z,2680.00
2022-09-28T08:43:59.004Z,2654.00
2022-09-28T08:44:59.016Z,2999.00
2022-09-28T08:45:59.087Z,3556.00
2022-09-28T08:46:58.986Z,4429.00
2022-09-28T08:47:58.977Z,5191.00
2022-09-28T08:49:20.437Z,7243.00
2022-09-28T08:50:00.255Z,6181.00
2022-09-28T08:50:58.951Z,6216.00
2022-09-28T08:51:58.959Z,6276.00
2022-09-28T08:52:58.930Z,6831.00
2022-09-28T08:53:58.933Z,6992.00
2022-09-28T08:54:58.908Z,8625.00
2022-09-28T08:55:58.933Z,14075.00
2022-09-28T08:56:58.889Z,61148.00
2022-09-28T08:57:58.899Z,16133.00
2022-09-28T08:58:58.870Z,62103.00
2022-09-28T08:59:58.866Z,9356.00
2022-09-28T09:00:58.888Z,62172.00
2022-09-28T09:01:59.017Z,7532.00
2022-09-28T09:02:58.874Z,7535.00
2022-09-28T09:03:58.878Z,10463.00
2022-09-28T09:04:58.825Z,21804.00
2022-09-28T09:05:58.824Z,61372.00
2022-09-28T09:06:58.806Z,61301.00
2022-09-28T09:07:58.795Z,61402.00
2022-09-28T09:08:58.790Z,61512.00
2022-09-28T09:09:58.799Z,62025.00
2022-09-28T09:10:58.792Z,61586.00
2022-09-28T09:11:58.778Z,32765.00
2022-09-28T09:12:58.799Z,61495.00
2022-09-28T09:13:58.737Z,61538.00
2022-09-28T09:14:58.749Z,61584.00
2022-09-28T09:15:58.725Z,61634.00
2022-09-28T09:17:00.521Z,61624.00
2022-09-28T09:17:58.709Z,61610.00
2022-09-28T09:18:58.704Z,61549.00
2022-09-28T09:19:58.727Z,62550.00
2022-09-28T09:20:58.696Z,63051.00
2022-09-28T09:21:58.694Z,61491.00
2022-09-28T09:22:58.696Z,62883.00
2022-09-28T09:23:58.661Z,62931.00
2022-09-28T09:24:58.669Z,4206.00
2022-09-28T09:25:58.668Z,3585.00
2022-09-28T09:26:58.633Z,3477.00
2022-09-28T09:27:58.637Z,3249.00
2022-09-28T09:28:58.653Z,3077.00
2022-09-28T09:29:58.609Z,2938.00
2022-09-28T09:30:58.635Z,2898.00
2022-09-28T09:31:58.628Z,2866.00
2022-09-28T09:32:58.599Z,2885.00
2022-09-28T09:33:58.613Z,2900.00
2022-09-28T09:34:58.564Z,2832.00
2022-09-28T09:35:58.570Z,2718.00
2022-09-28T09:36:58.546Z,2625.00
2022-09-28T09:37:58.799Z,2572.00
2022-09-28T09:38:58.542Z,2493.00
2022-09-28T09:39:58.526Z,2437.00
2022-09-28T09:40:58.589Z,2423.00
2022-09-28T09:41:58.507Z,2541.00
2022-09-28T09:42:58.529Z,2760.00
2022-09-28T09:43:58.517Z,3114.00
2022-09-28T09:44:58.490Z,3315.00
2022-09-28T09:45:58.535Z,3447.00
2022-09-28T09:46:58.477Z,3769.00
2022-09-28T09:47:58.471Z,4086.00
2022-09-28T09:48:58.454Z,4147.00
2022-09-28T09:49:58.447Z,4183.00
2022-09-28T09:50:58.430Z,4099.00
2022-09-28T09:51:58.461Z,3961.00
2022-09-28T09:52:58.406Z,3773.00
2022-09-28T09:53:58.407Z,3376.00
2022-09-28T09:54:58.393Z,2975.00
2022-09-28T09:55:58.384Z,2605.00
2022-09-28T09:56:58.395Z,2278.00
2022-09-28T09:57:58.386Z,2079.00
2022-09-28T09:58:58.377Z,1960.00
2022-09-28T09:59:58.355Z,1869.00
2022-09-28T10:00:58.403Z,1787.00
2022-09-28T10:01:58.374Z,1705.00
2022-09-28T10:02:58.423Z,1640.00
2022-09-28T10:03:58.338Z,1590.00
2022-09-28T10:04:58.371Z,1526.00
2022-09-28T10:05:58.318Z,1464.00
2022-09-28T10:06:58.298Z,1517.00
2022-09-28T10:07:58.348Z,1828.00
2022-09-28T10:08:58.282Z,2025.00
2022-09-28T10:09:58.283Z,2319.00
2022-09-28T10:10:58.288Z,2781.00
2022-09-28T10:11:58.255Z,3733.00
2022-09-28T10:12:58.248Z,62941.00
2022-09-28T10:13:58.248Z,62007.00
2022-09-28T10:14:58.237Z,62133.00
2022-09-28T10:15:58.279Z,25419.00
2022-09-28T10:16:58.361Z,11910.00
2022-09-28T10:17:58.293Z,15643.00
2022-09-28T10:18:58.206Z,17922.00
2022-09-28T10:19:58.193Z,10949.00
2022-09-28T10:20:58.199Z,10095.00
2022-09-28T10:21:58.207Z,9435.00
2022-09-28T10:22:58.175Z,7075.00
2022-09-28T10:23:58.188Z,7076.00
2022-09-28T10:24:58.141Z,7221.00
2022-09-28T10:25:58.229Z,7023.00
2022-09-28T10:26:58.129Z,6769.00
2022-09-28T10:27:58.150Z,5956.00
2022-09-28T10:28:58.118Z,5378.00
2022-09-28T10:29:58.115Z,5815.00
2022-09-28T10:30:58.235Z,6126.00
2022-09-28T10:31:58.236Z,6723.00
2022-09-28T10:32:59.310Z,6212.00
2022-09-28T10:33:58.210Z,6095.00
2022-09-28T10:34:58.205Z,5177.00
2022-09-28T10:35:58.042Z,5174.00
2022-09-28T10:36:58.050Z,5404.00
2022-09-28T10:37:58.027Z,5091.00
2022-09-28T10:38:58.054Z,4830.00
2022-09-28T10:39:58.020Z,4696.00
2022-09-28T10:40:58.125Z,5003.00
2022-09-28T10:41:58.013Z,6051.00
2022-09-28T10:42:57.986Z,8151.00
2022-09-28T10:43:58.231Z,9512.00
2022-09-28T10:44:58.001Z,7323.00
2022-09-28T10:45:57.989Z,12468.00
2022-09-28T10:46:57.954Z,9960.00
2022-09-28T10:47:57.946Z,11128.00
2022-09-28T10:48:57.940Z,11693.00
2022-09-28T10:49:58.007Z,9584.00
2022-09-28T10:50:57.925Z,8241.00
2022-09-28T10:51:57.950Z,7319.00
2022-09-28T10:52:57.903Z,6687.00
2022-09-28T10:53:57.903Z,6339.00
2022-09-28T10:54:57.898Z,6069.00
2022-09-28T10:55:57.904Z,8914.00
2022-09-28T10:56:57.904Z,7486.00
2022-09-28T10:57:57.881Z,7278.00
2022-09-28T10:58:57.860Z,6971.00
2022-09-28T10:59:57.846Z,6678.00
2022-09-28T11:00:57.869Z,6422.00
2022-09-28T11:01:57.836Z,6383.00
2022-09-28T11:02:57.872Z,5964.00
2022-09-28T11:03:57.809Z,8403.00
2022-09-28T11:04:57.795Z,14882.00
2022-09-28T11:05:57.809Z,14920.00
2022-09-28T11:06:57.833Z,15015.00
2022-09-28T11:07:57.772Z,14829.00
2022-09-28T11:08:57.778Z,14913.00
2022-09-28T11:09:57.774Z,15134.00
2022-09-28T11:10:57.756Z,15012.00
2022-09-28T11:11:57.750Z,10940.00
2022-09-28T11:12:57.757Z,9620.00
2022-09-28T11:13:57.740Z,7052.00
2022-09-28T11:14:57.738Z,6283.00
2022-09-28T11:15:57.704Z,5354.00
2022-09-28T11:16:57.745Z,4833.00
2022-09-28T11:17:57.722Z,4204.00
2022-09-28T11:18:57.682Z,3740.00
2022-09-28T11:19:57.698Z,3395.00
2022-09-28T11:20:57.670Z,3203.00
2022-09-28T11:21:57.675Z,3129.00
2022-09-28T11:22:57.675Z,3007.00
2022-09-28T11:23:57.649Z,2935.00
2022-09-28T11:24:57.640Z,2859.00
2022-09-28T11:25:57.671Z,2875.00
2022-09-28T11:26:57.624Z,2897.00
2022-09-28T11:27:57.674Z,2711.00
2022-09-28T11:28:57.598Z,2517.00
2022-09-28T11:29:57.593Z,2353.00
2022-09-28T11:30:57.746Z,2193.00
2022-09-28T11:31:57.572Z,2014.00
2022-09-28T11:32:57.627Z,1809.00
2022-09-28T11:33:57.923Z,1628.00
2022-09-28T11:35:00.069Z,1528.00
2022-09-28T11:35:57.541Z,1499.00
2022-09-28T11:37:01.504Z,1467.00
2022-09-28T11:37:57.530Z,1478.00
2022-09-28T11:38:58.883Z,1558.00
2022-09-28T11:39:57.539Z,1673.00
2022-09-28T11:40:57.670Z,1759.00
2022-09-28T11:41:57.704Z,1873.00
2022-09-28T11:42:58.018Z,1892.00
2022-09-28T11:43:57.458Z,1870.00
2022-09-28T11:44:58.147Z,1891.00
2022-09-28T11:45:57.501Z,2002.00
2022-09-28T11:46:57.685Z,2118.00
2022-09-28T11:47:57.427Z,2225.00
2022-09-28T11:48:57.424Z,2423.00
2022-09-28T11:49:57.936Z,2719.00
2022-09-28T11:50:57.405Z,3051.00
2022-09-28T11:51:57.432Z,3362.00
2022-09-28T11:52:57.398Z,3547.00
2022-09-28T11:53:57.390Z,3697.00
2022-09-28T11:54:58.174Z,3810.00
2022-09-28T11:55:57.371Z,3954.00
2022-09-28T11:56:57.735Z,4157.00
2022-09-28T11:57:57.341Z,4320.00
2022-09-28T11:58:57.525Z,4507.00
2022-09-28T11:59:57.351Z,4690.00
2022-09-28T12:00:57.334Z,4896.00
2022-09-28T12:01:57.340Z,5174.00
2022-09-28T12:02:57.976Z,5576.00
2022-09-28T12:03:57.735Z,6218.00
2022-09-28T12:04:57.298Z,6903.00
2022-09-28T12:05:58.297Z,8571.00
2022-09-28T12:06:57.284Z,9451.00
2022-09-28T12:07:58.195Z,62373.00
2022-09-28T12:08:57.753Z,7838.00
2022-09-28T12:09:58.605Z,7174.00
2022-09-28T12:10:57.248Z,7723.00
2022-09-28T12:11:57.258Z,15890.00
2022-09-28T12:12:57.651Z,61895.00
2022-09-28T12:13:57.405Z,61988.00
2022-09-28T12:14:57.583Z,19655.00
2022-09-28T12:16:23.475Z,11257.00
2022-09-28T12:17:06.711Z,17577.00
2022-09-28T12:17:58.501Z,8726.00
2022-09-28T12:18:57.279Z,6878.00
2022-09-28T12:19:57.957Z,5989.00
2022-09-28T12:20:58.745Z,4077.00
2022-09-28T12:21:57.146Z,3247.00
2022-09-28T12:22:57.164Z,2669.00
2022-09-28T12:23:57.130Z,2368.00
2022-09-28T12:24:57.124Z,2151.00
2022-09-28T12:25:57.104Z,2020.00
2022-09-28T12:26:57.103Z,1989.00
2022-09-28T12:27:57.093Z,2068.00
2022-09-28T12:28:57.098Z,2154.00
2022-09-28T12:29:57.095Z,2165.00
2022-09-28T12:30:57.123Z,2068.00
2022-09-28T12:31:57.070Z,1890.00
2022-09-28T12:32:57.055Z,1776.00
2022-09-28T12:33:57.050Z,1669.00
2022-09-28T12:34:57.063Z,1564.00
2022-09-28T12:35:57.030Z,1464.00
2022-09-28T12:36:57.015Z,1374.00
2022-09-28T12:37:57.036Z,1309.00
2022-09-28T12:39:17.630Z,1280.00
2022-09-28T12:39:58.622Z,1311.00
2022-09-28T12:40:57.642Z,1402.00